Newington, New Hampshire
Current Conditions -  °F | °C
As of 1:51 AM on Sunday 26 Oct 2014 (Local Time) from KDAW Reporting Station
Clear Clear  
Wind Chill: 53°   Ceiling: Unl
Heat Index: 53°   Visibility: 10mi
Dew Point: 44°   Wind: 3mph
Humidity: 71%   Direction: NA
Pressure: 29.43"   Gusts: NA
Location:  43.2364°N, 70.8206°W
Report Text: KDAW 260551Z AUTO VRB03KT 10SM CLR 12/07 A2943 RMK AO2 SLP961 60000 T01170067 10128 20106 56024
Loading
Personal Weather Stations






























Interactive Weather Map
Tropical Storm Tracking
New forecast layout! Learn more

10-Day Weather Forecast

Advertisements
Track Severe Weather on mobile